Etusivu
Satelliittikuvat 15 päivän ennusteetIlmastoMerisää Syklonit Salamointi LentoasematUKK Uutiskirje Muuta
Sää : Eurooppa Afrikka Pohjois-Amerikka Etelä-Amerikka Aasia Australia-Oseania Muut
Kielet Yhteydenotto

Kittilä, Suomi

Leveyspiiri: 67-42N, Pituuspiiri: 024-51E, korkeus merenpinnasta: 196 m


METAR: EFKT 250050Z AUTO 15005KT 100V190 4600 -SHSN OVC009 M02/M02 Q1012
TAF: EFKT 241105Z 2411/2412 16013KT 8000 -SN BKN015 TEMPO 2411/2412 2000 SN BKN008

Aika: 04:24 (01:24 UTC)

Tämänhetkinen sää

Tämä raportti tehtiin 34 minuuttia sitten, kello 00.50 UTC
Tuuli 5 kn etelästä/kaakosta, vaihdellen idän ja etelän välillä
Lämpötila -2°C
Kosteus 100%
Ilmanpaine 1012 hPa
Näkyvyys: 4600 m
Pilvistä 900 ft:n korkeudessa
heikkoa lumikuuroja

Muuta yksikköjä

Sääennuste

Tämä raportti tehtiin 14 tuntia ja 19 minuuttia sitten, kello 11.05 UTC
Ennuste voimassa 24. päivästä klo 11 UTC - 24. päivään klo 12 UTC
Tuuli 13 kn etelästä/kaakosta
Näkyvyys: 8000 m
Hajonneita pilviä 1500 ft:n korkeudessa
heikkoa lumisadetta
Ajoittain
24. päivästä klo 11 UTC - 24. päivään klo 12 UTC
Näkyvyys: 2000 m
Hajonneita pilviä 800 ft:n korkeudessa
lumisadetta
Tällä sivustolla oleviin tietoihin sovelletaan vastuuvapauslauseketta
Sää : Eurooppa Afrikka Pohjois-Amerikka Etelä-Amerikka Aasia Australia-Oseania Muut
Satelliittikuvat 15 päivän ennusteetIlmastoMerisää Syklonit Salamointi LentoasematUKK Kielet Yhteydenotto Uutiskirje Muuta